sensor_id;sensor_type;location;lat;lon;timestamp;P1;durP1;ratioP1;P2;durP2;ratioP2
2872;SDS011;1444;49.166;7.312;2022-07-29T00:01:14;8.70;;;5.20;;
2872;SDS011;1444;49.166;7.312;2022-07-29T00:03:41;5.10;;;4.50;;
2872;SDS011;1444;49.166;7.312;2022-07-29T00:06:09;5.10;;;4.70;;
2872;SDS011;1444;49.166;7.312;2022-07-29T00:08:35;7.33;;;4.40;;
2872;SDS011;1444;49.166;7.312;2022-07-29T00:11:02;5.63;;;4.60;;
2872;SDS011;1444;49.166;7.312;2022-07-29T00:13:29;6.27;;;4.83;;
2872;SDS011;1444;49.166;7.312;2022-07-29T00:15:56;5.30;;;4.80;;
2872;SDS011;1444;49.166;7.312;2022-07-29T00:18:22;5.77;;;5.13;;
2872;SDS011;1444;49.166;7.312;2022-07-29T00:20:49;6.47;;;4.10;;
2872;SDS011;1444;49.166;7.312;2022-07-29T00:23:17;7.40;;;5.00;;
2872;SDS011;1444;49.166;7.312;2022-07-29T00:25:44;5.50;;;5.00;;
2872;SDS011;1444;49.166;7.312;2022-07-29T00:28:10;9.03;;;5.50;;
2872;SDS011;1444;49.166;7.312;2022-07-29T00:30:37;8.40;;;4.30;;
2872;SDS011;1444;49.166;7.312;2022-07-29T00:33:03;8.40;;;4.50;;
2872;SDS011;1444;49.166;7.312;2022-07-29T00:35:30;6.67;;;5.20;;
2872;SDS011;1444;49.166;7.312;2022-07-29T00:38:11;5.67;;;4.97;;
2872;SDS011;1444;49.166;7.312;2022-07-29T00:40:40;5.20;;;4.70;;
2872;SDS011;1444;49.166;7.312;2022-07-29T00:43:08;9.23;;;5.13;;
2872;SDS011;1444;49.166;7.312;2022-07-29T00:45:34;11.80;;;6.03;;
2872;SDS011;1444;49.166;7.312;2022-07-29T00:48:01;5.20;;;4.80;;
2872;SDS011;1444;49.166;7.312;2022-07-29T00:50:29;6.07;;;5.47;;
2872;SDS011;1444;49.166;7.312;2022-07-29T00:52:56;4.67;;;4.27;;
2872;SDS011;1444;49.166;7.312;2022-07-29T00:55:24;5.70;;;5.20;;
2872;SDS011;1444;49.166;7.312;2022-07-29T00:57:52;4.60;;;4.30;;
2872;SDS011;1444;49.166;7.312;2022-07-29T01:00:20;14.57;;;7.77;;
2872;SDS011;1444;49.166;7.312;2022-07-29T01:02:48;9.90;;;4.80;;
2872;SDS011;1444;49.166;7.312;2022-07-29T01:05:16;5.47;;;4.93;;
2872;SDS011;1444;49.166;7.312;2022-07-29T01:07:45;8.00;;;5.13;;
2872;SDS011;1444;49.166;7.312;2022-07-29T01:10:14;5.10;;;4.40;;
2872;SDS011;1444;49.166;7.312;2022-07-29T01:12:42;7.03;;;5.40;;
2872;SDS011;1444;49.166;7.312;2022-07-29T01:15:12;6.00;;;5.40;;
2872;SDS011;1444;49.166;7.312;2022-07-29T01:17:40;4.97;;;4.40;;
2872;SDS011;1444;49.166;7.312;2022-07-29T01:20:11;5.50;;;5.00;;
2872;SDS011;1444;49.166;7.312;2022-07-29T01:29:00;7.03;;;5.93;;
2872;SDS011;1444;49.166;7.312;2022-07-29T01:31:31;8.20;;;5.20;;
2872;SDS011;1444;49.166;7.312;2022-07-29T01:34:05;5.57;;;5.00;;
2872;SDS011;1444;49.166;7.312;2022-07-29T01:36:35;5.63;;;5.13;;
2872;SDS011;1444;49.166;7.312;2022-07-29T01:39:10;5.30;;;4.83;;
2872;SDS011;1444;49.166;7.312;2022-07-29T01:41:38;5.77;;;5.23;;
2872;SDS011;1444;49.166;7.312;2022-07-29T01:44:14;5.37;;;4.83;;
2872;SDS011;1444;49.166;7.312;2022-07-29T01:46:47;5.20;;;4.80;;
2872;SDS011;1444;49.166;7.312;2022-07-29T01:49:20;6.57;;;5.97;;
2872;SDS011;1444;49.166;7.312;2022-07-29T01:51:50;9.07;;;5.90;;
2872;SDS011;1444;49.166;7.312;2022-07-29T01:54:21;6.97;;;5.40;;
2872;SDS011;1444;49.166;7.312;2022-07-29T01:56:53;6.27;;;5.60;;
2872;SDS011;1444;49.166;7.312;2022-07-29T01:59:23;6.57;;;5.80;;
2872;SDS011;1444;49.166;7.312;2022-07-29T02:01:52;6.17;;;5.03;;
2872;SDS011;1444;49.166;7.312;2022-07-29T02:04:20;6.20;;;4.70;;
2872;SDS011;1444;49.166;7.312;2022-07-29T02:06:49;7.83;;;5.97;;
2872;SDS011;1444;49.166;7.312;2022-07-29T02:09:17;5.40;;;4.90;;
2872;SDS011;1444;49.166;7.312;2022-07-29T02:11:47;9.77;;;6.07;;
2872;SDS011;1444;49.166;7.312;2022-07-29T02:14:17;7.00;;;5.67;;
2872;SDS011;1444;49.166;7.312;2022-07-29T02:16:47;8.03;;;5.67;;
2872;SDS011;1444;49.166;7.312;2022-07-29T02:19:17;6.97;;;5.47;;
2872;SDS011;1444;49.166;7.312;2022-07-29T02:21:45;6.57;;;5.60;;
2872;SDS011;1444;49.166;7.312;2022-07-29T02:24:13;10.17;;;6.40;;
2872;SDS011;1444;49.166;7.312;2022-07-29T02:26:42;6.20;;;5.60;;
2872;SDS011;1444;49.166;7.312;2022-07-29T02:29:10;8.90;;;5.90;;
2872;SDS011;1444;49.166;7.312;2022-07-29T02:31:38;9.20;;;5.83;;
2872;SDS011;1444;49.166;7.312;2022-07-29T02:34:09;6.57;;;5.97;;
2872;SDS011;1444;49.166;7.312;2022-07-29T02:36:37;6.30;;;5.23;;
2872;SDS011;1444;49.166;7.312;2022-07-29T02:39:05;9.00;;;4.87;;
2872;SDS011;1444;49.166;7.312;2022-07-29T02:41:38;13.10;;;6.00;;
2872;SDS011;1444;49.166;7.312;2022-07-29T02:44:09;6.53;;;5.90;;
2872;SDS011;1444;49.166;7.312;2022-07-29T02:46:37;6.10;;;5.50;;
2872;SDS011;1444;49.166;7.312;2022-07-29T02:49:14;6.23;;;5.40;;
2872;SDS011;1444;49.166;7.312;2022-07-29T02:51:45;7.20;;;5.60;;
2872;SDS011;1444;49.166;7.312;2022-07-29T02:54:19;6.53;;;5.90;;
2872;SDS011;1444;49.166;7.312;2022-07-29T02:56:49;8.30;;;7.13;;
2872;SDS011;1444;49.166;7.312;2022-07-29T02:59:22;7.27;;;6.57;;
2872;SDS011;1444;49.166;7.312;2022-07-29T03:01:52;6.23;;;5.27;;
2872;SDS011;1444;49.166;7.312;2022-07-29T03:04:22;6.83;;;5.23;;
2872;SDS011;1444;49.166;7.312;2022-07-29T03:06:51;6.97;;;6.27;;
2872;SDS011;1444;49.166;7.312;2022-07-29T03:09:19;7.83;;;6.30;;
2872;SDS011;1444;49.166;7.312;2022-07-29T03:11:47;8.57;;;7.60;;
2872;SDS011;1444;49.166;7.312;2022-07-29T03:14:14;9.33;;;6.10;;
2872;SDS011;1444;49.166;7.312;2022-07-29T03:16:42;12.50;;;6.43;;
2872;SDS011;1444;49.166;7.312;2022-07-29T03:19:09;6.03;;;5.43;;
2872;SDS011;1444;49.166;7.312;2022-07-29T03:21:37;5.87;;;5.37;;
2872;SDS011;1444;49.166;7.312;2022-07-29T03:24:04;9.17;;;6.60;;
2872;SDS011;1444;49.166;7.312;2022-07-29T03:26:31;7.40;;;6.70;;
2872;SDS011;1444;49.166;7.312;2022-07-29T03:28:59;7.10;;;5.50;;
2872;SDS011;1444;49.166;7.312;2022-07-29T03:31:26;10.27;;;8.57;;
2872;SDS011;1444;49.166;7.312;2022-07-29T03:33:52;7.20;;;5.07;;
2872;SDS011;1444;49.166;7.312;2022-07-29T03:36:19;7.00;;;6.37;;
2872;SDS011;1444;49.166;7.312;2022-07-29T03:38:47;7.37;;;5.80;;
2872;SDS011;1444;49.166;7.312;2022-07-29T03:41:15;7.50;;;6.77;;
2872;SDS011;1444;49.166;7.312;2022-07-29T03:43:44;10.67;;;6.90;;
2872;SDS011;1444;49.166;7.312;2022-07-29T03:46:13;6.33;;;5.83;;
2872;SDS011;1444;49.166;7.312;2022-07-29T03:48:42;11.70;;;7.37;;
2872;SDS011;1444;49.166;7.312;2022-07-29T03:51:14;6.70;;;5.60;;
2872;SDS011;1444;49.166;7.312;2022-07-29T03:53:41;10.57;;;6.47;;
2872;SDS011;1444;49.166;7.312;2022-07-29T03:56:09;11.33;;;6.70;;
2872;SDS011;1444;49.166;7.312;2022-07-29T03:58:39;13.30;;;6.10;;
2872;SDS011;1444;49.166;7.312;2022-07-29T04:01:06;9.37;;;6.60;;
2872;SDS011;1444;49.166;7.312;2022-07-29T04:03:33;8.47;;;7.60;;
2872;SDS011;1444;49.166;7.312;2022-07-29T04:06:01;9.53;;;6.87;;
2872;SDS011;1444;49.166;7.312;2022-07-29T04:08:30;9.50;;;8.60;;
2872;SDS011;1444;49.166;7.312;2022-07-29T04:10:57;12.57;;;7.67;;
2872;SDS011;1444;49.166;7.312;2022-07-29T04:13:25;13.17;;;10.10;;
2872;SDS011;1444;49.166;7.312;2022-07-29T04:15:52;7.53;;;6.83;;
2872;SDS011;1444;49.166;7.312;2022-07-29T04:18:18;10.40;;;8.27;;
2872;SDS011;1444;49.166;7.312;2022-07-29T04:20:45;11.30;;;5.73;;
2872;SDS011;1444;49.166;7.312;2022-07-29T04:23:12;6.70;;;6.03;;
2872;SDS011;1444;49.166;7.312;2022-07-29T04:25:39;7.93;;;6.17;;
2872;SDS011;1444;49.166;7.312;2022-07-29T04:28:06;8.20;;;6.30;;
2872;SDS011;1444;49.166;7.312;2022-07-29T04:30:36;7.40;;;6.10;;
2872;SDS011;1444;49.166;7.312;2022-07-29T04:33:04;12.80;;;6.30;;
2872;SDS011;1444;49.166;7.312;2022-07-29T04:35:33;8.27;;;7.23;;
2872;SDS011;1444;49.166;7.312;2022-07-29T04:38:01;7.27;;;6.47;;
2872;SDS011;1444;49.166;7.312;2022-07-29T04:40:28;11.07;;;8.40;;
2872;SDS011;1444;49.166;7.312;2022-07-29T04:42:54;7.40;;;6.33;;
2872;SDS011;1444;49.166;7.312;2022-07-29T04:45:21;10.60;;;8.40;;
2872;SDS011;1444;49.166;7.312;2022-07-29T04:47:49;8.80;;;7.13;;
2872;SDS011;1444;49.166;7.312;2022-07-29T04:50:16;22.23;;;7.83;;
2872;SDS011;1444;49.166;7.312;2022-07-29T04:52:42;7.57;;;6.70;;
2872;SDS011;1444;49.166;7.312;2022-07-29T04:55:09;9.80;;;7.87;;
2872;SDS011;1444;49.166;7.312;2022-07-29T04:57:36;9.03;;;7.47;;
2872;SDS011;1444;49.166;7.312;2022-07-29T05:00:03;6.70;;;6.07;;
2872;SDS011;1444;49.166;7.312;2022-07-29T05:02:31;11.53;;;9.20;;
2872;SDS011;1444;49.166;7.312;2022-07-29T05:04:59;8.60;;;7.53;;
2872;SDS011;1444;49.166;7.312;2022-07-29T05:07:25;7.93;;;7.23;;
2872;SDS011;1444;49.166;7.312;2022-07-29T05:09:52;8.80;;;7.57;;
2872;SDS011;1444;49.166;7.312;2022-07-29T05:12:21;8.53;;;7.50;;
2872;SDS011;1444;49.166;7.312;2022-07-29T05:14:48;8.60;;;7.50;;
2872;SDS011;1444;49.166;7.312;2022-07-29T05:17:15;12.00;;;6.00;;
2872;SDS011;1444;49.166;7.312;2022-07-29T05:19:41;10.50;;;6.00;;
2872;SDS011;1444;49.166;7.312;2022-07-29T05:22:09;9.97;;;7.13;;
2872;SDS011;1444;49.166;7.312;2022-07-29T05:24:36;8.73;;;7.83;;
2872;SDS011;1444;49.166;7.312;2022-07-29T05:27:03;14.83;;;7.57;;
2872;SDS011;1444;49.166;7.312;2022-07-29T05:29:29;9.53;;;8.60;;
2872;SDS011;1444;49.166;7.312;2022-07-29T05:31:56;7.77;;;7.07;;
2872;SDS011;1444;49.166;7.312;2022-07-29T05:34:23;21.97;;;8.83;;
2872;SDS011;1444;49.166;7.312;2022-07-29T05:36:50;10.97;;;7.87;;
2872;SDS011;1444;49.166;7.312;2022-07-29T05:39:18;10.27;;;7.97;;
2872;SDS011;1444;49.166;7.312;2022-07-29T05:41:44;9.17;;;8.27;;
2872;SDS011;1444;49.166;7.312;2022-07-29T05:44:11;8.40;;;7.70;;
2872;SDS011;1444;49.166;7.312;2022-07-29T05:46:38;10.77;;;7.37;;
2872;SDS011;1444;49.166;7.312;2022-07-29T05:49:05;9.53;;;7.90;;
2872;SDS011;1444;49.166;7.312;2022-07-29T05:51:32;9.50;;;8.17;;
2872;SDS011;1444;49.166;7.312;2022-07-29T05:53:59;8.00;;;6.60;;
2872;SDS011;1444;49.166;7.312;2022-07-29T05:56:27;9.60;;;8.07;;
2872;SDS011;1444;49.166;7.312;2022-07-29T05:58:53;11.60;;;7.00;;
2872;SDS011;1444;49.166;7.312;2022-07-29T06:01:20;11.03;;;7.23;;
2872;SDS011;1444;49.166;7.312;2022-07-29T06:03:47;11.00;;;7.80;;
2872;SDS011;1444;49.166;7.312;2022-07-29T06:06:14;12.60;;;7.30;;
2872;SDS011;1444;49.166;7.312;2022-07-29T06:08:40;9.47;;;7.30;;
2872;SDS011;1444;49.166;7.312;2022-07-29T06:11:07;7.30;;;6.53;;
2872;SDS011;1444;49.166;7.312;2022-07-29T06:13:35;8.40;;;7.70;;
2872;SDS011;1444;49.166;7.312;2022-07-29T06:16:02;7.50;;;6.47;;
2872;SDS011;1444;49.166;7.312;2022-07-29T06:18:29;7.13;;;6.53;;
2872;SDS011;1444;49.166;7.312;2022-07-29T06:20:56;8.17;;;7.37;;
2872;SDS011;1444;49.166;7.312;2022-07-29T06:23:23;9.50;;;8.53;;
2872;SDS011;1444;49.166;7.312;2022-07-29T06:25:50;7.93;;;6.53;;
2872;SDS011;1444;49.166;7.312;2022-07-29T06:28:16;9.30;;;7.23;;
2872;SDS011;1444;49.166;7.312;2022-07-29T06:30:44;9.00;;;7.20;;
2872;SDS011;1444;49.166;7.312;2022-07-29T06:33:15;9.63;;;6.90;;
2872;SDS011;1444;49.166;7.312;2022-07-29T06:35:42;6.07;;;5.50;;
2872;SDS011;1444;49.166;7.312;2022-07-29T06:38:10;8.17;;;7.43;;
2872;SDS011;1444;49.166;7.312;2022-07-29T06:40:40;7.20;;;5.37;;
2872;SDS011;1444;49.166;7.312;2022-07-29T06:43:25;16.20;;;8.20;;
2872;SDS011;1444;49.166;7.312;2022-07-29T06:45:53;11.73;;;5.30;;
2872;SDS011;1444;49.166;7.312;2022-07-29T06:48:19;7.63;;;6.73;;
2872;SDS011;1444;49.166;7.312;2022-07-29T06:50:46;6.77;;;6.17;;
2872;SDS011;1444;49.166;7.312;2022-07-29T06:53:13;5.80;;;5.27;;
2872;SDS011;1444;49.166;7.312;2022-07-29T06:55:40;7.77;;;6.10;;
2872;SDS011;1444;49.166;7.312;2022-07-29T06:58:07;6.33;;;5.30;;
2872;SDS011;1444;49.166;7.312;2022-07-29T07:00:34;11.27;;;5.70;;
2872;SDS011;1444;49.166;7.312;2022-07-29T07:03:02;7.03;;;6.17;;
2872;SDS011;1444;49.166;7.312;2022-07-29T07:05:34;7.63;;;5.63;;
2872;SDS011;1444;49.166;7.312;2022-07-29T07:08:01;5.27;;;4.77;;
2872;SDS011;1444;49.166;7.312;2022-07-29T07:10:28;8.63;;;7.13;;
2872;SDS011;1444;49.166;7.312;2022-07-29T07:12:54;6.07;;;5.57;;
2872;SDS011;1444;49.166;7.312;2022-07-29T07:15:22;11.63;;;6.87;;
2872;SDS011;1444;49.166;7.312;2022-07-29T07:17:48;6.77;;;5.47;;
2872;SDS011;1444;49.166;7.312;2022-07-29T07:20:17;5.73;;;4.40;;
2872;SDS011;1444;49.166;7.312;2022-07-29T07:23:01;5.63;;;5.00;;
2872;SDS011;1444;49.166;7.312;2022-07-29T07:25:28;6.80;;;5.23;;
2872;SDS011;1444;49.166;7.312;2022-07-29T07:27:55;5.33;;;4.83;;
2872;SDS011;1444;49.166;7.312;2022-07-29T07:30:21;4.47;;;4.07;;
2872;SDS011;1444;49.166;7.312;2022-07-29T07:32:48;4.53;;;4.10;;
2872;SDS011;1444;49.166;7.312;2022-07-29T07:35:16;7.47;;;5.00;;
2872;SDS011;1444;49.166;7.312;2022-07-29T07:37:43;6.30;;;4.83;;
2872;SDS011;1444;49.166;7.312;2022-07-29T07:40:10;5.00;;;4.60;;
2872;SDS011;1444;49.166;7.312;2022-07-29T07:42:38;7.43;;;5.20;;
2872;SDS011;1444;49.166;7.312;2022-07-29T07:45:05;15.23;;;5.23;;
2872;SDS011;1444;49.166;7.312;2022-07-29T07:47:34;12.07;;;4.70;;
2872;SDS011;1444;49.166;7.312;2022-07-29T07:50:01;5.23;;;4.73;;
2872;SDS011;1444;49.166;7.312;2022-07-29T07:52:30;6.50;;;4.90;;
2872;SDS011;1444;49.166;7.312;2022-07-29T07:54:57;7.33;;;4.93;;
2872;SDS011;1444;49.166;7.312;2022-07-29T07:57:23;4.80;;;4.30;;
2872;SDS011;1444;49.166;7.312;2022-07-29T07:59:50;5.60;;;5.00;;
2872;SDS011;1444;49.166;7.312;2022-07-29T08:02:17;5.10;;;4.60;;
2872;SDS011;1444;49.166;7.312;2022-07-29T08:04:43;6.80;;;4.80;;
2872;SDS011;1444;49.166;7.312;2022-07-29T08:07:10;4.50;;;4.10;;
2872;SDS011;1444;49.166;7.312;2022-07-29T08:09:38;6.87;;;4.80;;
2872;SDS011;1444;49.166;7.312;2022-07-29T08:12:05;11.20;;;4.20;;
2872;SDS011;1444;49.166;7.312;2022-07-29T08:14:32;5.20;;;4.70;;
2872;SDS011;1444;49.166;7.312;2022-07-29T08:16:59;4.57;;;4.17;;
2872;SDS011;1444;49.166;7.312;2022-07-29T08:19:25;5.50;;;5.00;;
2872;SDS011;1444;49.166;7.312;2022-07-29T08:21:52;5.23;;;4.53;;
2872;SDS011;1444;49.166;7.312;2022-07-29T08:24:19;5.80;;;5.20;;
2872;SDS011;1444;49.166;7.312;2022-07-29T08:27:05;5.33;;;4.83;;
2872;SDS011;1444;49.166;7.312;2022-07-29T08:29:32;9.17;;;5.30;;
2872;SDS011;1444;49.166;7.312;2022-07-29T08:31:58;7.90;;;4.70;;
2872;SDS011;1444;49.166;7.312;2022-07-29T08:34:25;12.03;;;5.23;;
2872;SDS011;1444;49.166;7.312;2022-07-29T08:36:52;8.03;;;4.47;;
2872;SDS011;1444;49.166;7.312;2022-07-29T08:39:18;8.87;;;5.37;;
2872;SDS011;1444;49.166;7.312;2022-07-29T08:41:45;6.23;;;4.67;;
2872;SDS011;1444;49.166;7.312;2022-07-29T08:44:13;5.43;;;4.63;;
2872;SDS011;1444;49.166;7.312;2022-07-29T08:46:41;8.10;;;4.90;;
2872;SDS011;1444;49.166;7.312;2022-07-29T08:49:08;8.17;;;4.70;;
2872;SDS011;1444;49.166;7.312;2022-07-29T08:51:35;8.40;;;4.43;;
2872;SDS011;1444;49.166;7.312;2022-07-29T08:54:05;9.73;;;4.77;;
2872;SDS011;1444;49.166;7.312;2022-07-29T08:56:32;5.80;;;4.40;;
2872;SDS011;1444;49.166;7.312;2022-07-29T08:59:02;5.40;;;4.27;;
2872;SDS011;1444;49.166;7.312;2022-07-29T09:01:32;5.90;;;4.50;;
2872;SDS011;1444;49.166;7.312;2022-07-29T09:03:59;4.60;;;4.20;;
2872;SDS011;1444;49.166;7.312;2022-07-29T09:06:29;8.97;;;4.70;;
2872;SDS011;1444;49.166;7.312;2022-07-29T09:08:58;5.97;;;4.60;;
2872;SDS011;1444;49.166;7.312;2022-07-29T09:11:26;5.60;;;3.93;;
2872;SDS011;1444;49.166;7.312;2022-07-29T09:13:53;6.90;;;4.00;;
2872;SDS011;1444;49.166;7.312;2022-07-29T09:16:20;8.00;;;5.07;;
2872;SDS011;1444;49.166;7.312;2022-07-29T09:18:48;4.13;;;3.80;;
2872;SDS011;1444;49.166;7.312;2022-07-29T09:21:15;4.37;;;3.97;;
2872;SDS011;1444;49.166;7.312;2022-07-29T09:24:02;5.73;;;4.17;;
2872;SDS011;1444;49.166;7.312;2022-07-29T09:26:31;4.40;;;4.00;;
2872;SDS011;1444;49.166;7.312;2022-07-29T09:29:01;6.00;;;3.70;;
2872;SDS011;1444;49.166;7.312;2022-07-29T09:31:36;5.60;;;3.60;;
2872;SDS011;1444;49.166;7.312;2022-07-29T09:34:07;5.77;;;4.17;;
2872;SDS011;1444;49.166;7.312;2022-07-29T09:36:41;3.93;;;3.63;;
2872;SDS011;1444;49.166;7.312;2022-07-29T09:39:08;7.60;;;5.10;;
2872;SDS011;1444;49.166;7.312;2022-07-29T09:41:45;4.43;;;4.03;;
2872;SDS011;1444;49.166;7.312;2022-07-29T09:44:13;5.20;;;4.00;;
2872;SDS011;1444;49.166;7.312;2022-07-29T09:46:40;7.50;;;4.07;;
2872;SDS011;1444;49.166;7.312;2022-07-29T09:49:19;6.60;;;3.93;;
2872;SDS011;1444;49.166;7.312;2022-07-29T09:51:45;7.40;;;4.90;;
2872;SDS011;1444;49.166;7.312;2022-07-29T09:54:22;3.50;;;3.20;;
2872;SDS011;1444;49.166;7.312;2022-07-29T09:56:50;5.50;;;4.20;;
2872;SDS011;1444;49.166;7.312;2022-07-29T09:59:17;4.27;;;3.60;;
2872;SDS011;1444;49.166;7.312;2022-07-29T10:01:45;4.90;;;4.17;;
2872;SDS011;1444;49.166;7.312;2022-07-29T10:04:12;5.00;;;3.67;;
2872;SDS011;1444;49.166;7.312;2022-07-29T10:09:26;3.77;;;3.33;;
2872;SDS011;1444;49.166;7.312;2022-07-29T10:14:36;4.93;;;4.23;;
2872;SDS011;1444;49.166;7.312;2022-07-29T10:17:04;3.80;;;3.50;;
2872;SDS011;1444;49.166;7.312;2022-07-29T10:19:32;4.33;;;3.93;;
2872;SDS011;1444;49.166;7.312;2022-07-29T10:22:01;5.47;;;3.93;;
2872;SDS011;1444;49.166;7.312;2022-07-29T10:24:30;3.80;;;3.47;;
2872;SDS011;1444;49.166;7.312;2022-07-29T10:26:58;7.27;;;3.97;;
2872;SDS011;1444;49.166;7.312;2022-07-29T10:29:26;6.93;;;4.40;;
2872;SDS011;1444;49.166;7.312;2022-07-29T10:31:58;8.73;;;3.50;;
2872;SDS011;1444;49.166;7.312;2022-07-29T10:34:46;4.80;;;2.97;;
2872;SDS011;1444;49.166;7.312;2022-07-29T10:37:26;5.50;;;3.60;;
2872;SDS011;1444;49.166;7.312;2022-07-29T10:40:00;5.10;;;3.80;;
2872;SDS011;1444;49.166;7.312;2022-07-29T10:42:58;8.40;;;3.90;;
2872;SDS011;1444;49.166;7.312;2022-07-29T10:45:34;6.93;;;3.63;;
2872;SDS011;1444;49.166;7.312;2022-07-29T10:48:04;4.37;;;3.97;;
2872;SDS011;1444;49.166;7.312;2022-07-29T10:53:21;9.40;;;2.50;;
2872;SDS011;1444;49.166;7.312;2022-07-29T10:55:48;5.47;;;2.80;;
2872;SDS011;1444;49.166;7.312;2022-07-29T10:58:16;4.50;;;2.57;;
2872;SDS011;1444;49.166;7.312;2022-07-29T11:00:44;5.60;;;2.60;;
2872;SDS011;1444;49.166;7.312;2022-07-29T11:06:11;4.83;;;2.97;;
2872;SDS011;1444;49.166;7.312;2022-07-29T11:08:39;3.30;;;2.63;;
2872;SDS011;1444;49.166;7.312;2022-07-29T11:14:05;4.03;;;2.27;;
2872;SDS011;1444;49.166;7.312;2022-07-29T11:19:24;2.30;;;1.77;;
2872;SDS011;1444;49.166;7.312;2022-07-29T11:21:51;5.93;;;2.07;;
2872;SDS011;1444;49.166;7.312;2022-07-29T11:24:20;2.20;;;2.00;;
2872;SDS011;1444;49.166;7.312;2022-07-29T11:29:38;5.83;;;3.20;;
2872;SDS011;1444;49.166;7.312;2022-07-29T11:32:10;3.23;;;2.50;;
2872;SDS011;1444;49.166;7.312;2022-07-29T11:34:39;3.80;;;2.07;;
2872;SDS011;1444;49.166;7.312;2022-07-29T11:37:17;2.73;;;2.13;;
2872;SDS011;1444;49.166;7.312;2022-07-29T11:40:07;6.90;;;2.73;;
2872;SDS011;1444;49.166;7.312;2022-07-29T11:42:42;2.10;;;1.77;;
2872;SDS011;1444;49.166;7.312;2022-07-29T11:45:10;4.40;;;1.80;;
2872;SDS011;1444;49.166;7.312;2022-07-29T11:47:40;4.47;;;2.30;;
2872;SDS011;1444;49.166;7.312;2022-07-29T11:50:09;4.40;;;2.30;;
2872;SDS011;1444;49.166;7.312;2022-07-29T11:52:38;3.77;;;2.10;;
2872;SDS011;1444;49.166;7.312;2022-07-29T11:55:12;2.53;;;1.97;;
2872;SDS011;1444;49.166;7.312;2022-07-29T11:57:46;2.50;;;1.90;;
2872;SDS011;1444;49.166;7.312;2022-07-29T12:00:20;3.70;;;2.00;;
2872;SDS011;1444;49.166;7.312;2022-07-29T12:02:49;5.10;;;2.07;;
2872;SDS011;1444;49.166;7.312;2022-07-29T12:05:15;2.30;;;2.00;;
2872;SDS011;1444;49.166;7.312;2022-07-29T12:07:43;3.30;;;2.17;;
2872;SDS011;1444;49.166;7.312;2022-07-29T12:10:10;3.80;;;1.90;;
2872;SDS011;1444;49.166;7.312;2022-07-29T12:12:38;3.40;;;1.90;;
2872;SDS011;1444;49.166;7.312;2022-07-29T12:15:14;3.70;;;1.97;;
2872;SDS011;1444;49.166;7.312;2022-07-29T12:17:45;2.93;;;2.47;;
2872;SDS011;1444;49.166;7.312;2022-07-29T12:20:12;8.00;;;2.90;;
2872;SDS011;1444;49.166;7.312;2022-07-29T12:22:47;4.17;;;1.90;;
2872;SDS011;1444;49.166;7.312;2022-07-29T12:25:15;3.40;;;2.00;;
2872;SDS011;1444;49.166;7.312;2022-07-29T12:27:43;2.47;;;1.67;;
2872;SDS011;1444;49.166;7.312;2022-07-29T12:30:11;8.63;;;2.60;;
2872;SDS011;1444;49.166;7.312;2022-07-29T12:32:40;6.80;;;2.33;;
2872;SDS011;1444;49.166;7.312;2022-07-29T12:35:10;4.33;;;2.03;;
2872;SDS011;1444;49.166;7.312;2022-07-29T12:37:39;7.87;;;2.10;;
2872;SDS011;1444;49.166;7.312;2022-07-29T12:40:08;5.97;;;2.43;;
2872;SDS011;1444;49.166;7.312;2022-07-29T12:42:36;2.50;;;1.60;;
2872;SDS011;1444;49.166;7.312;2022-07-29T12:45:04;4.00;;;2.03;;
2872;SDS011;1444;49.166;7.312;2022-07-29T12:47:32;3.20;;;1.83;;
2872;SDS011;1444;49.166;7.312;2022-07-29T12:50:08;6.07;;;1.87;;
2872;SDS011;1444;49.166;7.312;2022-07-29T12:52:36;3.60;;;1.97;;
2872;SDS011;1444;49.166;7.312;2022-07-29T12:55:03;2.10;;;1.87;;
2872;SDS011;1444;49.166;7.312;2022-07-29T12:57:30;7.20;;;2.03;;
2872;SDS011;1444;49.166;7.312;2022-07-29T13:00:03;2.20;;;1.90;;
2872;SDS011;1444;49.166;7.312;2022-07-29T13:02:32;3.30;;;2.00;;
2872;SDS011;1444;49.166;7.312;2022-07-29T13:04:59;2.47;;;2.23;;
2872;SDS011;1444;49.166;7.312;2022-07-29T13:07:29;2.70;;;2.10;;
2872;SDS011;1444;49.166;7.312;2022-07-29T13:10:09;2.30;;;2.03;;
2872;SDS011;1444;49.166;7.312;2022-07-29T13:12:37;4.30;;;1.60;;
2872;SDS011;1444;49.166;7.312;2022-07-29T13:15:14;2.33;;;1.40;;
2872;SDS011;1444;49.166;7.312;2022-07-29T13:17:41;3.03;;;2.10;;
2872;SDS011;1444;49.166;7.312;2022-07-29T13:20:09;3.00;;;2.20;;
2872;SDS011;1444;49.166;7.312;2022-07-29T13:22:39;3.23;;;2.10;;
2872;SDS011;1444;49.166;7.312;2022-07-29T13:25:07;2.10;;;1.90;;
2872;SDS011;1444;49.166;7.312;2022-07-29T13:27:36;3.10;;;1.90;;
2872;SDS011;1444;49.166;7.312;2022-07-29T13:30:04;6.30;;;2.03;;
2872;SDS011;1444;49.166;7.312;2022-07-29T13:32:34;5.23;;;2.20;;
2872;SDS011;1444;49.166;7.312;2022-07-29T13:35:03;3.80;;;3.40;;
2872;SDS011;1444;49.166;7.312;2022-07-29T13:37:31;4.17;;;2.10;;
2872;SDS011;1444;49.166;7.312;2022-07-29T13:39:59;6.37;;;1.90;;
2872;SDS011;1444;49.166;7.312;2022-07-29T13:42:27;5.20;;;2.87;;
2872;SDS011;1444;49.166;7.312;2022-07-29T13:44:55;2.67;;;1.90;;
2872;SDS011;1444;49.166;7.312;2022-07-29T13:47:21;2.90;;;2.40;;
2872;SDS011;1444;49.166;7.312;2022-07-29T13:49:50;2.50;;;2.03;;
2872;SDS011;1444;49.166;7.312;2022-07-29T13:52:18;2.67;;;2.13;;
2872;SDS011;1444;49.166;7.312;2022-07-29T13:54:45;4.50;;;2.47;;
2872;SDS011;1444;49.166;7.312;2022-07-29T13:57:12;4.40;;;2.40;;
2872;SDS011;1444;49.166;7.312;2022-07-29T13:59:39;4.40;;;2.33;;
2872;SDS011;1444;49.166;7.312;2022-07-29T14:02:06;4.90;;;2.77;;
2872;SDS011;1444;49.166;7.312;2022-07-29T14:04:33;4.73;;;2.47;;
2872;SDS011;1444;49.166;7.312;2022-07-29T14:07:02;6.53;;;2.47;;
2872;SDS011;1444;49.166;7.312;2022-07-29T14:09:28;3.47;;;2.50;;
2872;SDS011;1444;49.166;7.312;2022-07-29T14:11:55;5.77;;;2.70;;
2872;SDS011;1444;49.166;7.312;2022-07-29T14:14:22;7.20;;;2.10;;
2872;SDS011;1444;49.166;7.312;2022-07-29T14:16:48;5.93;;;2.57;;
2872;SDS011;1444;49.166;7.312;2022-07-29T14:19:15;3.53;;;2.47;;
2872;SDS011;1444;49.166;7.312;2022-07-29T14:21:42;3.27;;;2.40;;
2872;SDS011;1444;49.166;7.312;2022-07-29T14:24:10;2.40;;;2.17;;
2872;SDS011;1444;49.166;7.312;2022-07-29T14:26:37;30.77;;;4.90;;
2872;SDS011;1444;49.166;7.312;2022-07-29T14:29:04;2.40;;;2.20;;
2872;SDS011;1444;49.166;7.312;2022-07-29T14:31:30;3.43;;;2.30;;
2872;SDS011;1444;49.166;7.312;2022-07-29T14:33:57;3.90;;;2.40;;
2872;SDS011;1444;49.166;7.312;2022-07-29T14:36:24;4.10;;;2.67;;
2872;SDS011;1444;49.166;7.312;2022-07-29T14:38:50;5.70;;;2.80;;
2872;SDS011;1444;49.166;7.312;2022-07-29T14:41:18;3.27;;;2.73;;
2872;SDS011;1444;49.166;7.312;2022-07-29T14:43:46;4.00;;;2.60;;
2872;SDS011;1444;49.166;7.312;2022-07-29T14:46:13;3.30;;;2.53;;
2872;SDS011;1444;49.166;7.312;2022-07-29T14:48:39;5.03;;;2.57;;
2872;SDS011;1444;49.166;7.312;2022-07-29T14:51:06;3.37;;;2.60;;
2872;SDS011;1444;49.166;7.312;2022-07-29T14:53:33;4.80;;;2.57;;
2872;SDS011;1444;49.166;7.312;2022-07-29T14:55:59;3.47;;;2.30;;
2872;SDS011;1444;49.166;7.312;2022-07-29T14:58:27;3.10;;;2.67;;
2872;SDS011;1444;49.166;7.312;2022-07-29T15:00:54;3.17;;;2.27;;
2872;SDS011;1444;49.166;7.312;2022-07-29T15:03:21;3.00;;;1.90;;
2872;SDS011;1444;49.166;7.312;2022-07-29T15:05:48;3.50;;;2.40;;
2872;SDS011;1444;49.166;7.312;2022-07-29T15:08:14;3.13;;;2.80;;
2872;SDS011;1444;49.166;7.312;2022-07-29T15:10:41;8.70;;;2.87;;
2872;SDS011;1444;49.166;7.312;2022-07-29T15:13:08;2.87;;;2.33;;
2872;SDS011;1444;49.166;7.312;2022-07-29T15:15:36;4.43;;;2.67;;
2872;SDS011;1444;49.166;7.312;2022-07-29T15:18:03;3.47;;;2.90;;
2872;SDS011;1444;49.166;7.312;2022-07-29T15:20:30;2.83;;;2.63;;
2872;SDS011;1444;49.166;7.312;2022-07-29T15:22:56;3.30;;;2.43;;
2872;SDS011;1444;49.166;7.312;2022-07-29T15:25:23;3.00;;;2.70;;
2872;SDS011;1444;49.166;7.312;2022-07-29T15:27:50;4.03;;;3.20;;
2872;SDS011;1444;49.166;7.312;2022-07-29T15:30:17;5.33;;;2.70;;
2872;SDS011;1444;49.166;7.312;2022-07-29T15:32:45;2.80;;;2.30;;
2872;SDS011;1444;49.166;7.312;2022-07-29T15:35:12;7.53;;;3.00;;
2872;SDS011;1444;49.166;7.312;2022-07-29T15:37:39;6.47;;;4.80;;
2872;SDS011;1444;49.166;7.312;2022-07-29T15:40:06;2.77;;;2.30;;
2872;SDS011;1444;49.166;7.312;2022-07-29T15:42:34;4.27;;;3.03;;
2872;SDS011;1444;49.166;7.312;2022-07-29T15:45:01;3.20;;;2.43;;
2872;SDS011;1444;49.166;7.312;2022-07-29T15:47:28;4.43;;;3.20;;
2872;SDS011;1444;49.166;7.312;2022-07-29T15:49:56;3.60;;;3.30;;